Time;durP1;ratioP1;P1;durP2;ratioP2;P2;SDS_P1;SDS_P2;PMS_P1;PMS_P2;Temp;Humidity;BMP_temperature;BMP_pressure;BME280_temperature;BME280_humidity;BME280_pressure;Samples;Min_cycle;Max_cycle;Signal;HPM_P1;HPM_P2
2022/06/19 00:03:34;;;;;;;8.82;4.90;;;;;;;;;;10371821;28;20042;-68
2022/06/19 00:08:36;;;;;;;9.95;4.82;;;;;;;;;;10371521;28;20053;-68
2022/06/19 00:13:43;;;;;;;7.05;4.65;;;;;;;;;;10371363;28;20050;-68
2022/06/19 00:18:46;;;;;;;9.52;5.28;;;;;;;;;;10371099;28;20050;-68
2022/06/19 00:23:49;;;;;;;8.48;4.88;;;;;;;;;;10358400;28;20210;-68
2022/06/19 00:28:53;;;;;;;9.38;4.80;;;;;;;;;;10370241;28;20053;-68
2022/06/19 00:33:56;;;;;;;20.38;5.50;;;;;;;;;;10370128;28;20042;-68
2022/06/19 00:38:58;;;;;;;7.47;4.82;;;;;;;;;;10370170;28;20050;-68
2022/06/19 00:44:07;;;;;;;16.58;4.90;;;;;;;;;;10370125;28;20198;-68
2022/06/19 00:49:12;;;;;;;9.00;4.30;;;;;;;;;;10369867;28;20053;-67
2022/06/19 00:54:18;;;;;;;7.03;4.95;;;;;;;;;;10369658;28;20042;-67
2022/06/19 00:59:22;;;;;;;9.18;4.85;;;;;;;;;;10369612;28;20046;-68
2022/06/19 01:04:31;;;;;;;8.73;6.15;;;;;;;;;;10369329;28;20042;-67
2022/06/19 01:09:34;;;;;;;10.02;6.60;;;;;;;;;;10369202;28;20069;-67
2022/06/19 01:14:40;;;;;;;7.70;5.47;;;;;;;;;;10369013;28;20042;-68
2022/06/19 01:19:43;;;;;;;10.85;5.93;;;;;;;;;;10367633;28;20049;-68
2022/06/19 01:25:10;;;;;;;9.15;5.97;;;;;;;;;;10360980;28;20050;-68
2022/06/19 01:30:14;;;;;;;6.30;5.00;;;;;;;;;;10368548;28;20330;-69
2022/06/19 01:35:18;;;;;;;7.30;4.83;;;;;;;;;;10368412;28;20352;-68
2022/06/19 01:40:25;;;;;;;9.85;5.78;;;;;;;;;;10368244;28;20347;-67
2022/06/19 01:45:27;;;;;;;8.55;6.53;;;;;;;;;;10368041;28;20049;-67
2022/06/19 01:50:31;;;;;;;13.57;8.10;;;;;;;;;;10368243;28;20042;-67
2022/06/19 01:55:35;;;;;;;;;;;;;;;;;;10368409;28;20050;-68
2022/06/19 02:00:39;;;;;;;8.90;6.87;;;;;;;;;;10368000;28;19924;-68
2022/06/19 02:05:42;;;;;;;12.32;7.70;;;;;;;;;;10367894;28;20046;-68
2022/06/19 02:10:48;;;;;;;11.85;8.07;;;;;;;;;;10368240;28;20042;-68
2022/06/19 02:15:53;;;;;;;10.73;8.15;;;;;;;;;;10367981;28;20049;-67
2022/06/19 02:20:56;;;;;;;12.07;8.18;;;;;;;;;;10363990;28;20049;-68
2022/06/19 02:26:01;;;;;;;13.50;7.75;;;;;;;;;;10357152;28;20058;-68
2022/06/19 02:31:06;;;;;;;9.55;7.38;;;;;;;;;;10367785;28;20042;-68
2022/06/19 02:36:35;;;;;;;12.45;7.75;;;;;;;;;;10354004;28;20241;-68
2022/06/19 02:41:45;;;;;;;13.00;7.38;;;;;;;;;;10367417;28;20222;-68
2022/06/19 02:46:47;;;;;;;12.40;6.95;;;;;;;;;;10367179;28;20089;-68
2022/06/19 02:51:50;;;;;;;11.20;6.80;;;;;;;;;;10354118;28;20054;-67
2022/06/19 02:56:53;;;;;;;9.35;5.95;;;;;;;;;;10373784;28;20042;-67
2022/06/19 03:01:56;;;;;;;6.43;5.63;;;;;;;;;;10374043;28;20049;-68
2022/06/19 03:06:58;;;;;;;9.05;5.95;;;;;;;;;;10373827;28;20046;-67
2022/06/19 03:12:03;;;;;;;10.13;6.00;;;;;;;;;;10360336;28;20054;-67
2022/06/19 03:17:06;;;;;;;9.70;5.60;;;;;;;;;;10373483;28;20042;-68
2022/06/19 03:22:09;;;;;;;10.03;5.87;;;;;;;;;;10365619;28;20042;-68
2022/06/19 03:27:13;;;;;;;7.35;4.60;;;;;;;;;;10373126;28;20053;-68
2022/06/19 03:32:16;;;;;;;8.10;5.38;;;;;;;;;;10359930;28;20053;-68
2022/06/19 03:37:19;;;;;;;10.63;5.23;;;;;;;;;;10372658;28;20049;-68
2022/06/19 03:42:22;;;;;;;5.85;4.43;;;;;;;;;;10372648;28;20049;-68
2022/06/19 03:47:27;;;;;;;8.90;5.25;;;;;;;;;;10372373;28;20334;-68
2022/06/19 03:52:30;;;;;;;9.38;5.47;;;;;;;;;;10358590;28;20054;-68
2022/06/19 03:57:34;;;;;;;8.60;5.85;;;;;;;;;;10371857;28;20241;-67
2022/06/19 04:02:36;;;;;;;6.45;5.32;;;;;;;;;;10358340;28;20050;-67
2022/06/19 04:07:43;;;;;;;9.40;4.18;;;;;;;;;;10370351;28;20105;-67
2022/06/19 04:12:47;;;;;;;5.97;4.30;;;;;;;;;;10371331;28;20042;-68
2022/06/19 04:17:50;;;;;;;5.53;4.25;;;;;;;;;;10370883;28;20047;-68
2022/06/19 04:22:53;;;;;;;5.65;4.07;;;;;;;;;;10357495;28;20142;-68
2022/06/19 04:27:57;;;;;;;7.30;3.85;;;;;;;;;;10370786;28;20050;-69
2022/06/19 04:32:59;;;;;;;7.32;4.15;;;;;;;;;;10370479;28;20049;-68
2022/06/19 04:38:01;;;;;;;8.95;4.85;;;;;;;;;;10370301;28;20057;-68
2022/06/19 04:43:06;;;;;;;7.50;4.18;;;;;;;;;;10370236;28;20042;-67
2022/06/19 04:48:10;;;;;;;5.15;3.42;;;;;;;;;;10356373;28;20054;-69
2022/06/19 04:53:12;;;;;;;3.97;3.13;;;;;;;;;;10356145;28;20050;-69
2022/06/19 04:58:16;;;;;;;4.13;2.90;;;;;;;;;;10355924;28;20342;-68
2022/06/19 05:03:19;;;;;;;7.05;3.70;;;;;;;;;;10369483;28;20042;-68
2022/06/19 05:08:23;;;;;;;10.90;3.63;;;;;;;;;;10355895;28;20294;-68
2022/06/19 05:13:27;;;;;;;2.85;2.05;;;;;;;;;;10349125;28;20058;-67
2022/06/19 05:18:29;;;;;;;0.55;0.30;;;;;;;;;;10355478;28;20061;-70
2022/06/19 05:23:33;;;;;;;0.00;0.00;;;;;;;;;;10353199;28;20373;-69
2022/06/19 05:28:39;;;;;;;0.00;0.00;;;;;;;;;;10368863;28;20046;-69
2022/06/19 05:33:42;;;;;;;0.00;0.00;;;;;;;;;;10368556;28;20046;-68
2022/06/19 05:38:44;;;;;;;0.00;0.00;;;;;;;;;;10367886;28;20045;-68
2022/06/19 05:43:51;;;;;;;0.00;0.00;;;;;;;;;;10368466;28;20091;-68
2022/06/19 05:48:53;;;;;;;0.00;0.00;;;;;;;;;;10368504;28;20069;-69
2022/06/19 05:53:57;;;;;;;0.00;0.00;;;;;;;;;;10354060;28;20054;-69
2022/06/19 05:59:01;;;;;;;0.00;0.00;;;;;;;;;;10368013;28;20053;-68
2022/06/19 06:04:04;;;;;;;0.00;0.00;;;;;;;;;;10354599;28;20061;-69
2022/06/19 06:09:07;;;;;;;0.00;0.00;;;;;;;;;;10367923;28;20042;-69
2022/06/19 06:14:11;;;;;;;0.00;0.00;;;;;;;;;;10354992;28;20237;-69
2022/06/19 06:19:13;;;;;;;0.00;0.00;;;;;;;;;;10353692;28;20117;-69
2022/06/19 06:24:17;;;;;;;0.00;0.00;;;;;;;;;;10353884;28;20122;-69
2022/06/19 06:29:21;;;;;;;0.00;0.00;;;;;;;;;;10370995;28;20046;-69
2022/06/19 06:34:23;;;;;;;0.10;0.10;;;;;;;;;;10374783;28;20046;-69
2022/06/19 06:39:26;;;;;;;0.10;0.10;;;;;;;;;;10375018;28;20049;-69
2022/06/19 06:44:29;;;;;;;0.20;0.20;;;;;;;;;;10375069;28;20042;-69
2022/06/19 06:49:32;;;;;;;0.30;0.30;;;;;;;;;;10373150;28;20343;-69
2022/06/19 06:54:36;;;;;;;0.40;0.40;;;;;;;;;;10360600;28;20345;-69
2022/06/19 06:59:40;;;;;;;0.70;0.70;;;;;;;;;;10374616;28;20295;-69
2022/06/19 07:04:43;;;;;;;0.90;0.90;;;;;;;;;;10360008;28;20110;-69
2022/06/19 07:09:45;;;;;;;1.10;1.10;;;;;;;;;;10358162;28;20057;-69
2022/06/19 07:14:49;;;;;;;1.50;1.50;;;;;;;;;;10373946;28;20049;-69
2022/06/19 07:19:52;;;;;;;1.90;1.90;;;;;;;;;;10371013;28;20050;-70
2022/06/19 07:24:55;;;;;;;2.33;2.33;;;;;;;;;;10365843;28;20057;-68
2022/06/19 07:29:59;;;;;;;3.35;3.25;;;;;;;;;;10373523;28;20326;-70
2022/06/19 07:35:01;;;;;;;3.97;3.88;;;;;;;;;;10357873;28;20054;-69
2022/06/19 07:40:05;;;;;;;4.70;4.60;;;;;;;;;;10373134;28;20042;-69
2022/06/19 07:45:10;;;;;;;5.25;5.05;;;;;;;;;;10360064;28;20334;-69
2022/06/19 07:50:15;;;;;;;5.90;5.70;;;;;;;;;;10358343;28;20054;-70
2022/06/19 07:55:21;;;;;;;6.55;6.35;;;;;;;;;;10358907;28;20055;-68
2022/06/19 08:00:28;;;;;;;6.70;6.50;;;;;;;;;;10372173;28;20245;-69
2022/06/19 08:05:33;;;;;;;7.50;7.20;;;;;;;;;;10371163;28;20345;-70
2022/06/19 08:10:38;;;;;;;9.48;9.07;;;;;;;;;;10371629;28;20053;-69
2022/06/19 08:15:43;;;;;;;12.32;11.82;;;;;;;;;;10370927;28;20065;-70
2022/06/19 08:20:45;;;;;;;16.55;15.75;;;;;;;;;;10367421;28;20042;-69
2022/06/19 08:25:49;;;;;;;20.45;19.45;;;;;;;;;;10360800;28;20241;-69
2022/06/19 08:30:53;;;;;;;23.60;22.40;;;;;;;;;;10370031;28;20053;-69
2022/06/19 08:36:00;;;;;;;26.85;25.45;;;;;;;;;;10370863;28;20042;-69
2022/06/19 08:41:49;;;;;;;31.00;29.30;;;;;;;;;;10370659;28;20057;-70
2022/06/19 08:47:08;;;;;;;36.53;34.53;;;;;;;;;;10231677;29;20224;-70
2022/06/19 08:52:21;;;;;;;40.97;38.67;;;;;;;;;;10234798;29;20182;-69
2022/06/19 08:57:33;;;;;;;45.75;43.05;;;;;;;;;;10238544;29;20055;-69
2022/06/19 09:02:50;;;;;;;44.55;41.95;;;;;;;;;;10241002;29;20056;-68
2022/06/19 09:08:14;;;;;;;46.08;43.38;;;;;;;;;;10243332;29;20063;-69
2022/06/19 09:13:31;;;;;;;44.75;42.15;;;;;;;;;;10232617;29;20078;-70
2022/06/19 09:18:40;;;;;;;36.90;34.85;;;;;;;;;;10309870;28;20062;-69
2022/06/19 09:24:08;;;;;;;26.40;25.00;;;;;;;;;;10348800;28;20109;-69
2022/06/19 09:29:17;;;;;;;18.60;17.70;;;;;;;;;;10343993;28;20222;-69
2022/06/19 09:34:27;;;;;;;13.07;12.48;;;;;;;;;;10355329;28;20058;-69
2022/06/19 09:39:36;;;;;;;8.65;8.35;;;;;;;;;;10328342;28;20050;-69
2022/06/19 09:44:44;;;;;;;5.83;5.63;;;;;;;;;;10328291;28;20043;-69
2022/06/19 09:49:55;;;;;;;1.77;1.77;;;;;;;;;;10332584;28;20132;-68
2022/06/19 09:55:04;;;;;;;0.10;0.10;;;;;;;;;;10368548;28;20042;-69
2022/06/19 10:00:10;;;;;;;0.00;0.00;;;;;;;;;;10368306;28;20052;-68
2022/06/19 10:05:26;;;;;;;0.00;0.00;;;;;;;;;;10370812;28;20235;-68
2022/06/19 10:10:36;;;;;;;0.00;0.00;;;;;;;;;;10375759;28;20049;-69
2022/06/19 10:15:41;;;;;;;0.00;0.00;;;;;;;;;;10376426;28;20049;-69
2022/06/19 10:20:54;;;;;;;0.00;0.00;;;;;;;;;;10372139;28;20054;-70
2022/06/19 10:26:20;;;;;;;0.00;0.00;;;;;;;;;;10360070;28;20293;-69
2022/06/19 10:31:38;;;;;;;0.08;0.00;;;;;;;;;;10321701;28;20054;-70
2022/06/19 10:36:52;;;;;;;0.00;0.00;;;;;;;;;;10335323;28;20046;-69
2022/06/19 10:42:03;;;;;;;0.00;0.00;;;;;;;;;;10335498;28;20050;-68
2022/06/19 10:47:17;;;;;;;0.00;0.00;;;;;;;;;;10361845;28;20337;-68
2022/06/19 10:52:24;;;;;;;0.00;0.00;;;;;;;;;;10374885;28;20042;-67
2022/06/19 10:57:46;;;;;;;0.00;0.00;;;;;;;;;;10374213;28;20049;-68
2022/06/19 11:08:23;;;;;;;0.00;0.00;;;;;;;;;;10360336;28;20054;-68
2022/06/19 11:14:03;;;;;;;0.00;0.00;;;;;;;;;;10372624;28;20057;-69
2022/06/19 11:19:06;;;;;;;0.00;0.00;;;;;;;;;;10360294;28;20050;-69
2022/06/19 11:24:28;;;;;;;0.60;0.10;;;;;;;;;;10360120;28;20160;-68
2022/06/19 11:29:33;;;;;;;0.00;0.00;;;;;;;;;;10371486;28;20057;-69
2022/06/19 11:34:45;;;;;;;0.00;0.00;;;;;;;;;;10373262;28;20065;-69
2022/06/19 11:39:52;;;;;;;0.00;0.00;;;;;;;;;;10372931;28;20053;-68
2022/06/19 11:44:56;;;;;;;0.00;0.00;;;;;;;;;;10372243;28;20322;-68
2022/06/19 11:50:15;;;;;;;0.00;0.00;;;;;;;;;;10372563;28;20242;-70
2022/06/19 11:55:28;;;;;;;0.10;0.08;;;;;;;;;;10371744;28;20089;-68
2022/06/19 12:00:34;;;;;;;0.10;0.10;;;;;;;;;;10359215;28;20360;-69
2022/06/19 12:05:42;;;;;;;0.13;0.13;;;;;;;;;;10371704;28;20050;-69
2022/06/19 12:10:53;;;;;;;0.10;0.10;;;;;;;;;;10370693;28;20049;-69
2022/06/19 12:16:02;;;;;;;0.20;0.13;;;;;;;;;;10371165;28;20233;-68
2022/06/19 12:21:17;;;;;;;0.20;0.17;;;;;;;;;;10355795;28;20115;-68
2022/06/19 12:26:30;;;;;;;0.10;0.10;;;;;;;;;;10357104;28;20147;-69
2022/06/19 12:31:37;;;;;;;0.10;0.10;;;;;;;;;;10361573;28;20042;-70
2022/06/19 12:36:39;;;;;;;0.30;0.30;;;;;;;;;;10364727;28;20042;-74
2022/06/19 12:41:51;;;;;;;0.47;0.25;;;;;;;;;;10366201;28;20049;-70
2022/06/19 12:47:06;;;;;;;0.20;0.20;;;;;;;;;;10355403;28;20050;-71
2022/06/19 12:52:37;;;;;;;1.13;0.73;;;;;;;;;;10549754;27;20405;-70
2022/06/19 12:57:55;;;;;;;1.30;1.15;;;;;;;;;;10548781;28;20048;-70
2022/06/19 13:03:21;;;;;;;0.93;0.85;;;;;;;;;;10558799;28;20052;-68
2022/06/19 13:08:33;;;;;;;1.85;1.00;;;;;;;;;;10555941;28;20040;-70
2022/06/19 13:13:52;;;;;;;0.95;0.93;;;;;;;;;;10560745;28;20040;-70
2022/06/19 13:19:03;;;;;;;1.25;1.02;;;;;;;;;;10562488;28;20040;-69
2022/06/19 13:24:20;;;;;;;1.15;1.05;;;;;;;;;;10509541;28;20367;-69
2022/06/19 13:29:36;;;;;;;4.40;1.45;;;;;;;;;;10509073;28;20044;-74
2022/06/19 13:34:49;;;;;;;3.20;1.48;;;;;;;;;;10521894;28;20062;-71
2022/06/19 13:40:00;;;;;;;2.45;1.27;;;;;;;;;;10524196;28;20041;-67
2022/06/19 13:45:19;;;;;;;3.22;1.75;;;;;;;;;;10520158;28;20040;-71
2022/06/19 13:50:26;;;;;;;2.92;1.85;;;;;;;;;;10513895;28;20045;-69
2022/06/19 13:55:41;;;;;;;2.30;1.67;;;;;;;;;;10523178;28;20036;-69
2022/06/19 14:00:51;;;;;;;3.40;1.60;;;;;;;;;;10498223;28;20147;-70
2022/06/19 14:05:54;;;;;;;2.60;1.45;;;;;;;;;;10495016;28;20043;-71
2022/06/19 14:11:00;;;;;;;4.20;1.90;;;;;;;;;;10493461;28;20037;-70
2022/06/19 14:16:20;;;;;;;1.67;1.42;;;;;;;;;;10480180;28;20244;-70
2022/06/19 14:21:47;;;;;;;1.45;1.35;;;;;;;;;;10487530;28;20240;-69
2022/06/19 14:27:17;;;;;;;6.13;2.10;;;;;;;;;;10493292;28;20320;-68
2022/06/19 14:32:23;;;;;;;2.97;2.05;;;;;;;;;;10479482;28;20052;-68
2022/06/19 14:37:48;;;;;;;6.53;2.00;;;;;;;;;;10494872;28;20077;-68
2022/06/19 14:42:58;;;;;;;6.50;2.03;;;;;;;;;;10477620;28;20053;-68
2022/06/19 14:48:08;;;;;;;4.05;1.83;;;;;;;;;;10488441;28;20052;-68
2022/06/19 14:53:31;;;;;;;2.75;1.60;;;;;;;;;;10494409;28;20037;-68
2022/06/19 14:58:42;;;;;;;9.55;3.35;;;;;;;;;;10493306;28;20045;-69
2022/06/19 15:03:49;;;;;;;5.85;2.17;;;;;;;;;;10492288;28;20037;-68
2022/06/19 15:09:02;;;;;;;5.35;2.20;;;;;;;;;;10492349;28;20041;-69
2022/06/19 15:14:19;;;;;;;7.40;3.33;;;;;;;;;;10476628;28;20045;-68
2022/06/19 15:19:35;;;;;;;6.03;2.58;;;;;;;;;;10478728;28;20053;-70
2022/06/19 15:25:11;;;;;;;7.55;2.50;;;;;;;;;;10460096;28;20041;-70
2022/06/19 15:30:35;;;;;;;6.90;2.85;;;;;;;;;;10477134;28;20041;-71
2022/06/19 15:36:06;;;;;;;7.97;4.28;;;;;;;;;;10483992;28;20044;-69
2022/06/19 15:41:42;;;;;;;5.60;2.90;;;;;;;;;;10492577;28;20041;-70
2022/06/19 15:47:13;;;;;;;5.68;2.60;;;;;;;;;;10466898;28;20286;-70
2022/06/19 15:52:17;;;;;;;8.73;3.45;;;;;;;;;;10437601;28;20324;-71
2022/06/19 15:57:22;;;;;;;11.95;3.30;;;;;;;;;;10448035;28;20071;-70
2022/06/19 16:02:29;;;;;;;8.15;3.55;;;;;;;;;;10447750;28;20056;-67
2022/06/19 16:07:37;;;;;;;7.72;2.90;;;;;;;;;;10435671;28;20062;-69
2022/06/19 16:12:39;;;;;;;9.07;3.08;;;;;;;;;;10433890;28;20080;-72
2022/06/19 16:17:50;;;;;;;7.00;3.17;;;;;;;;;;10447119;28;20048;-68
2022/06/19 16:22:54;;;;;;;7.05;3.10;;;;;;;;;;10438622;28;20052;-69
2022/06/19 16:28:00;;;;;;;13.65;5.25;;;;;;;;;;10445314;28;20049;-70
2022/06/19 16:33:05;;;;;;;6.80;2.75;;;;;;;;;;10448295;28;20320;-70
2022/06/19 16:49:06;;;;;;;10.43;3.88;;;;;;;;;;10443090;28;20107;-71
2022/06/19 16:54:13;;;;;;;13.18;3.65;;;;;;;;;;10488613;28;20086;-71
2022/06/19 16:59:20;;;;;;;9.07;3.33;;;;;;;;;;10489175;28;20041;-71
2022/06/19 17:04:26;;;;;;;11.93;3.55;;;;;;;;;;10488189;28;20336;-70
2022/06/19 17:09:35;;;;;;;19.08;4.22;;;;;;;;;;10474013;28;20120;-69
2022/06/19 17:14:40;;;;;;;9.07;5.05;;;;;;;;;;10484503;28;20041;-70
2022/06/19 17:19:55;;;;;;;7.82;3.10;;;;;;;;;;10486415;28;20332;-70
2022/06/19 17:25:06;;;;;;;9.57;3.80;;;;;;;;;;10474723;28;20037;-68
2022/06/19 17:30:15;;;;;;;13.63;3.63;;;;;;;;;;10489271;28;20044;-70
2022/06/19 17:35:36;;;;;;;8.70;3.60;;;;;;;;;;10488118;28;20037;-70
2022/06/19 17:40:41;;;;;;;11.75;4.20;;;;;;;;;;10481518;28;20148;-71
2022/06/19 17:45:46;;;;;;;10.50;4.22;;;;;;;;;;10495828;28;20036;-71
2022/06/19 17:50:52;;;;;;;11.00;4.07;;;;;;;;;;10483190;28;20065;-69
2022/06/19 17:55:55;;;;;;;15.35;3.78;;;;;;;;;;10495303;28;20091;-71
2022/06/19 18:00:58;;;;;;;;;;;;;;;;;;10495163;28;20064;-70
2022/06/19 18:06:05;;;;;;;8.15;3.92;;;;;;;;;;10492872;28;19923;-70
2022/06/19 18:11:11;;;;;;;5.75;3.50;;;;;;;;;;10494769;28;20082;-71
2022/06/19 18:21:46;;;;;;;11.07;3.45;;;;;;;;;;10392568;28;20061;-70
2022/06/19 18:26:51;;;;;;;14.75;4.10;;;;;;;;;;10406558;28;20241;-71
2022/06/19 18:31:58;;;;;;;5.45;3.30;;;;;;;;;;10397250;28;20057;-69
2022/06/19 18:37:04;;;;;;;7.95;3.50;;;;;;;;;;10397542;28;20073;-71
2022/06/19 18:42:09;;;;;;;8.27;3.65;;;;;;;;;;10399344;28;20142;-72
2022/06/19 18:47:13;;;;;;;14.88;3.70;;;;;;;;;;10406524;28;20156;-70
2022/06/19 18:52:21;;;;;;;7.22;3.58;;;;;;;;;;10323310;28;20065;-71
2022/06/19 18:57:24;;;;;;;12.32;4.82;;;;;;;;;;10377788;28;20531;-71
2022/06/19 19:02:27;;;;;;;18.20;6.18;;;;;;;;;;10395973;28;20129;-69
2022/06/19 19:07:30;;;;;;;;;;;;;;;;;;10408993;28;20038;-71
2022/06/19 19:12:35;;;;;;;18.95;6.30;;;;;;;;;;10409571;28;19917;-68
2022/06/19 19:17:38;;;;;;;23.00;6.90;;;;;;;;;;10409069;28;20046;-68
2022/06/19 19:22:42;;;;;;;15.10;5.53;;;;;;;;;;10396768;28;20048;-68
2022/06/19 19:27:45;;;;;;;23.23;6.75;;;;;;;;;;10395528;28;20359;-68
2022/06/19 19:32:47;;;;;;;10.68;3.83;;;;;;;;;;10395267;28;20065;-68
2022/06/19 19:37:53;;;;;;;12.30;3.77;;;;;;;;;;10407260;28;20241;-69
2022/06/19 19:42:56;;;;;;;11.07;3.30;;;;;;;;;;10396101;28;20333;-69
2022/06/19 19:47:59;;;;;;;6.93;3.60;;;;;;;;;;10418254;28;20065;-66
2022/06/19 19:53:05;;;;;;;7.25;3.50;;;;;;;;;;10471508;28;20076;-69
2022/06/19 19:58:11;;;;;;;5.75;3.13;;;;;;;;;;10479054;28;20037;-68
2022/06/19 20:03:14;;;;;;;6.20;3.00;;;;;;;;;;10488727;28;20045;-68
2022/06/19 20:13:37;;;;;;;5.38;2.78;;;;;;;;;;10478278;28;20243;-68
2022/06/19 20:18:40;;;;;;;6.75;3.28;;;;;;;;;;10450419;28;20042;-67
2022/06/19 20:23:48;;;;;;;5.45;2.92;;;;;;;;;;10470039;28;20048;-68
2022/06/19 20:28:51;;;;;;;8.13;3.05;;;;;;;;;;10474781;28;20060;-68
2022/06/19 20:33:54;;;;;;;11.07;2.97;;;;;;;;;;10488592;28;20040;-68
2022/06/19 20:38:59;;;;;;;6.10;3.60;;;;;;;;;;10483073;28;20048;-68
2022/06/19 20:44:02;;;;;;;13.18;3.38;;;;;;;;;;10474925;28;20356;-68
2022/06/19 20:49:05;;;;;;;6.10;3.05;;;;;;;;;;10475283;28;20061;-68
2022/06/19 20:54:11;;;;;;;9.07;2.97;;;;;;;;;;10489186;28;20363;-68
2022/06/19 20:59:15;;;;;;;13.15;4.50;;;;;;;;;;10487308;28;20048;-68
2022/06/19 21:04:18;;;;;;;9.68;3.63;;;;;;;;;;10486715;28;20048;-67
2022/06/19 21:09:22;;;;;;;9.15;4.32;;;;;;;;;;10489895;28;20052;-67
2022/06/19 21:14:24;;;;;;;9.75;4.38;;;;;;;;;;10495959;28;20052;-68
2022/06/19 21:19:27;;;;;;;12.63;4.40;;;;;;;;;;10482336;28;20059;-68
2022/06/19 21:24:33;;;;;;;9.45;3.85;;;;;;;;;;10496053;28;20041;-68
2022/06/19 21:29:36;;;;;;;9.70;5.18;;;;;;;;;;10494531;28;20052;-67
2022/06/19 21:34:39;;;;;;;12.18;3.83;;;;;;;;;;10495396;28;20049;-68
2022/06/19 21:39:43;;;;;;;7.18;4.85;;;;;;;;;;10495830;28;20344;-67
2022/06/19 21:44:46;;;;;;;9.73;4.50;;;;;;;;;;10496216;28;20236;-66
2022/06/19 21:49:49;;;;;;;8.10;3.72;;;;;;;;;;10481624;28;20064;-67
2022/06/19 21:54:53;;;;;;;5.85;3.40;;;;;;;;;;10482584;28;20248;-67
2022/06/19 21:59:55;;;;;;;9.63;3.90;;;;;;;;;;10489719;28;20058;-66
2022/06/19 22:04:58;;;;;;;9.60;3.95;;;;;;;;;;10454947;28;20041;-66
2022/06/19 22:15:24;;;;;;;11.13;3.78;;;;;;;;;;10494592;28;20316;-68
2022/06/19 22:20:27;;;;;;;10.55;4.22;;;;;;;;;;10491272;28;20045;-68
2022/06/19 22:25:32;;;;;;;5.95;3.58;;;;;;;;;;10494359;28;20053;-67
2022/06/19 22:30:35;;;;;;;8.80;3.53;;;;;;;;;;10494802;28;20045;-67
2022/06/19 22:35:38;;;;;;;5.10;3.58;;;;;;;;;;10494748;28;20047;-68
2022/06/19 22:40:47;;;;;;;5.47;3.17;;;;;;;;;;10494170;28;20056;-67
2022/06/19 22:45:49;;;;;;;5.60;3.63;;;;;;;;;;10494079;28;20108;-68
2022/06/19 22:50:52;;;;;;;5.63;3.17;;;;;;;;;;10478098;28;20049;-67
2022/06/19 22:55:56;;;;;;;3.47;2.92;;;;;;;;;;10494014;28;20063;-67
2022/06/19 23:06:24;;;;;;;5.47;3.70;;;;;;;;;;10473880;28;20115;-67
2022/06/19 23:11:28;;;;;;;6.38;3.65;;;;;;;;;;10492470;28;20233;-67
2022/06/19 23:16:31;;;;;;;6.00;3.92;;;;;;;;;;10492056;28;20041;-68
2022/06/19 23:21:33;;;;;;;7.40;4.10;;;;;;;;;;10485312;28;20044;-68
2022/06/19 23:26:38;;;;;;;9.75;4.18;;;;;;;;;;10491292;28;20049;-66
2022/06/19 23:31:42;;;;;;;8.38;5.40;;;;;;;;;;10491103;28;20251;-68
2022/06/19 23:36:47;;;;;;;7.03;4.67;;;;;;;;;;10491042;28;20041;-68
2022/06/19 23:41:51;;;;;;;11.50;5.40;;;;;;;;;;10490798;28;20244;-68
2022/06/19 23:46:53;;;;;;;10.95;6.45;;;;;;;;;;10491020;28;20063;-68
2022/06/19 23:51:56;;;;;;;12.38;8.10;;;;;;;;;;10477566;28;20053;-68
2022/06/19 23:57:00;;;;;;;9.20;7.93;;;;;;;;;;10490738;28;20239;-68
